createdAt,value
2019-05-26T00:00:54.941Z,11.90
2019-05-26T00:01:54.851Z,11.93
2019-05-26T00:02:54.839Z,11.93
2019-05-26T00:03:54.854Z,11.93
2019-05-26T00:04:54.818Z,11.94
2019-05-26T00:05:54.867Z,11.93
2019-05-26T00:06:54.801Z,11.93
2019-05-26T00:07:54.769Z,11.87
2019-05-26T00:08:54.789Z,11.82
2019-05-26T00:09:54.767Z,11.84
2019-05-26T00:10:54.755Z,11.79
2019-05-26T00:11:54.747Z,11.78
2019-05-26T00:12:54.737Z,11.77
2019-05-26T00:13:54.736Z,11.75
2019-05-26T00:14:54.715Z,11.72
2019-05-26T00:15:54.685Z,11.70
2019-05-26T00:16:54.672Z,11.69
2019-05-26T00:17:54.684Z,11.66
2019-05-26T00:18:54.687Z,11.67
2019-05-26T00:19:54.647Z,11.66
2019-05-26T00:20:54.653Z,11.67
2019-05-26T00:21:54.623Z,11.66
2019-05-26T00:22:54.626Z,11.66
2019-05-26T00:23:56.370Z,11.69
2019-05-26T00:24:54.581Z,11.69
2019-05-26T00:25:54.592Z,11.70
2019-05-26T00:26:54.588Z,11.70
2019-05-26T00:27:54.578Z,11.70
2019-05-26T00:28:54.573Z,11.70
2019-05-26T00:29:54.557Z,11.74
2019-05-26T00:30:54.540Z,11.74
2019-05-26T00:31:54.525Z,11.75
2019-05-26T00:32:54.510Z,11.74
2019-05-26T00:33:54.548Z,11.74
2019-05-26T00:34:54.488Z,11.72
2019-05-26T00:35:54.488Z,11.74
2019-05-26T00:36:54.462Z,11.74
2019-05-26T00:37:54.459Z,11.75
2019-05-26T00:38:54.496Z,11.74
2019-05-26T00:39:54.429Z,11.74
2019-05-26T00:40:54.427Z,11.74
2019-05-26T00:41:54.405Z,11.77
2019-05-26T00:42:54.415Z,11.77
2019-05-26T00:43:54.414Z,11.78
2019-05-26T00:44:54.386Z,11.77
2019-05-26T00:45:54.363Z,11.77
2019-05-26T00:46:54.352Z,11.75
2019-05-26T00:47:54.342Z,11.75
2019-05-26T00:48:54.353Z,11.74
2019-05-26T00:49:54.356Z,11.74
2019-05-26T00:50:54.343Z,11.74
2019-05-26T00:51:54.341Z,11.74
2019-05-26T00:52:56.785Z,11.74
2019-05-26T00:53:54.340Z,11.75
2019-05-26T00:54:54.271Z,11.74
2019-05-26T00:55:54.259Z,11.74
2019-05-26T00:56:54.287Z,11.72
2019-05-26T00:57:54.252Z,11.69
2019-05-26T00:58:54.237Z,11.69
2019-05-26T00:59:54.208Z,11.69
2019-05-26T01:00:54.208Z,11.64
2019-05-26T01:01:54.268Z,11.60
2019-05-26T01:02:54.182Z,11.59
2019-05-26T01:03:54.187Z,11.56
2019-05-26T01:04:54.198Z,11.54
2019-05-26T01:05:54.148Z,11.51
2019-05-26T01:06:54.135Z,11.51
2019-05-26T01:08:05.813Z,11.53
2019-05-26T01:08:55.124Z,11.49
2019-05-26T01:09:54.126Z,11.46
2019-05-26T01:10:54.186Z,11.44
2019-05-26T01:11:54.084Z,11.45
2019-05-26T01:12:54.074Z,11.42
2019-05-26T01:13:54.073Z,11.42
2019-05-26T01:14:54.052Z,11.42
2019-05-26T01:15:54.052Z,11.39
2019-05-26T01:16:56.046Z,11.39
2019-05-26T01:17:54.035Z,11.39
2019-05-26T01:18:54.031Z,11.38
2019-05-26T01:19:54.022Z,11.35
2019-05-26T01:20:53.989Z,11.35
2019-05-26T01:21:54.001Z,11.35
2019-05-26T01:22:54.101Z,11.36
2019-05-26T01:23:53.982Z,11.35
2019-05-26T01:24:53.948Z,11.33
2019-05-26T01:25:53.928Z,11.30
2019-05-26T01:26:53.961Z,11.33
2019-05-26T01:27:53.908Z,11.31
2019-05-26T01:28:53.937Z,11.31
2019-05-26T01:29:53.927Z,11.31
2019-05-26T01:30:53.885Z,11.36
2019-05-26T01:31:53.875Z,11.36
2019-05-26T01:32:54.408Z,11.35
2019-05-26T01:33:53.855Z,11.35
2019-05-26T01:34:53.846Z,11.35
2019-05-26T01:35:53.823Z,11.31
2019-05-26T01:36:53.827Z,11.28
2019-05-26T01:37:53.804Z,11.30
2019-05-26T01:38:53.802Z,11.30
2019-05-26T01:39:53.861Z,11.28
2019-05-26T01:40:53.782Z,11.28
2019-05-26T01:41:53.762Z,11.31
2019-05-26T01:42:53.777Z,11.33
2019-05-26T01:43:53.877Z,11.35
2019-05-26T01:44:53.759Z,11.38
2019-05-26T01:45:53.732Z,11.39
2019-05-26T01:46:53.709Z,11.41
2019-05-26T01:47:53.726Z,11.42
2019-05-26T01:48:53.709Z,11.46
2019-05-26T01:49:53.719Z,11.45
2019-05-26T01:50:53.668Z,11.46
2019-05-26T01:51:53.677Z,11.46
2019-05-26T01:52:53.648Z,11.48
2019-05-26T01:53:53.638Z,11.51
2019-05-26T01:54:53.686Z,11.51
2019-05-26T01:55:53.637Z,11.56
2019-05-26T01:56:53.616Z,11.56
2019-05-26T01:57:53.625Z,11.56
2019-05-26T01:58:53.575Z,11.57
2019-05-26T01:59:53.566Z,11.57
2019-05-26T02:00:53.577Z,11.54
2019-05-26T02:01:53.565Z,11.53
2019-05-26T02:02:53.536Z,11.56
2019-05-26T02:03:53.524Z,11.56
2019-05-26T02:04:53.543Z,11.54
2019-05-26T02:05:53.510Z,11.51
2019-05-26T02:06:53.515Z,11.49
2019-05-26T02:07:53.486Z,11.51
2019-05-26T02:08:53.481Z,11.53
2019-05-26T02:09:53.480Z,11.49
2019-05-26T02:10:53.470Z,11.51
2019-05-26T02:11:53.478Z,11.53
2019-05-26T02:12:53.481Z,11.56
2019-05-26T02:13:53.458Z,11.53
2019-05-26T02:14:54.194Z,11.54
2019-05-26T02:15:53.422Z,11.57
2019-05-26T02:16:53.387Z,11.57
2019-05-26T02:17:53.378Z,11.57
2019-05-26T02:18:53.435Z,11.59
2019-05-26T02:19:53.357Z,11.57
2019-05-26T02:20:53.376Z,11.60
2019-05-26T02:21:53.335Z,11.62
2019-05-26T02:22:53.325Z,11.60
2019-05-26T02:23:53.329Z,11.63
2019-05-26T02:24:53.317Z,11.63
2019-05-26T02:25:53.322Z,11.63
2019-05-26T02:26:53.274Z,11.64
2019-05-26T02:27:53.273Z,11.63
2019-05-26T02:28:53.276Z,11.64
2019-05-26T02:29:53.242Z,11.64
2019-05-26T02:30:53.262Z,11.66
2019-05-26T02:31:53.228Z,11.66
2019-05-26T02:32:53.223Z,11.69
2019-05-26T02:33:53.247Z,11.69
2019-05-26T02:34:53.225Z,11.66
2019-05-26T02:35:53.200Z,11.67
2019-05-26T02:36:53.192Z,11.69
2019-05-26T02:37:53.162Z,11.69
2019-05-26T02:39:01.887Z,11.69
2019-05-26T02:39:54.170Z,11.67
2019-05-26T02:40:53.167Z,11.67
2019-05-26T02:41:53.133Z,11.70
2019-05-26T02:42:53.129Z,11.70
2019-05-26T02:43:53.103Z,11.69
2019-05-26T02:44:53.091Z,11.67
2019-05-26T02:45:53.098Z,11.69
2019-05-26T02:46:53.081Z,11.67
2019-05-26T02:47:53.055Z,11.67
2019-05-26T02:48:53.060Z,11.69
2019-05-26T02:49:53.046Z,11.70
2019-05-26T02:50:53.045Z,11.70
2019-05-26T02:51:53.045Z,11.72
2019-05-26T02:52:53.052Z,11.72
2019-05-26T02:53:53.000Z,11.75
2019-05-26T02:54:52.992Z,11.75
2019-05-26T02:55:52.975Z,11.75
2019-05-26T02:56:52.971Z,11.77
2019-05-26T02:57:52.961Z,11.77
2019-05-26T02:58:52.952Z,11.77
2019-05-26T02:59:52.964Z,11.78
2019-05-26T03:00:52.966Z,11.81
2019-05-26T03:02:03.042Z,11.81
2019-05-26T03:02:53.914Z,11.84
2019-05-26T03:03:52.892Z,11.84
2019-05-26T03:04:52.883Z,11.85
2019-05-26T03:05:52.894Z,11.87
2019-05-26T03:06:52.892Z,11.87
2019-05-26T03:07:52.859Z,11.87
2019-05-26T03:08:52.837Z,11.87
2019-05-26T03:09:52.825Z,11.88
2019-05-26T03:10:52.847Z,11.88
2019-05-26T03:11:52.822Z,11.87
2019-05-26T03:12:52.796Z,11.90
2019-05-26T03:13:52.775Z,11.90
2019-05-26T03:14:52.786Z,11.90
2019-05-26T03:15:52.808Z,11.94
2019-05-26T03:16:52.744Z,11.94
2019-05-26T03:17:52.778Z,11.93
2019-05-26T03:18:52.724Z,11.94
2019-05-26T03:19:52.734Z,11.97
2019-05-26T03:20:52.721Z,11.97
2019-05-26T03:21:52.690Z,11.98
2019-05-26T03:22:52.693Z,11.98
2019-05-26T03:23:52.701Z,12.01
2019-05-26T03:24:52.680Z,12.01
2019-05-26T03:25:52.700Z,12.05
2019-05-26T03:26:52.639Z,12.08
2019-05-26T03:27:52.658Z,12.12
2019-05-26T03:28:52.637Z,12.13
2019-05-26T03:29:52.619Z,12.15
2019-05-26T03:30:52.609Z,12.16
2019-05-26T03:31:52.589Z,12.19
2019-05-26T03:32:52.581Z,12.22
2019-05-26T03:33:52.579Z,12.23
2019-05-26T03:34:52.576Z,12.26
2019-05-26T03:35:52.577Z,12.31
2019-05-26T03:36:52.540Z,12.34
2019-05-26T03:37:52.527Z,12.37
2019-05-26T03:38:52.524Z,12.37
2019-05-26T03:39:52.497Z,12.38
2019-05-26T03:40:52.501Z,12.38
2019-05-26T03:41:52.488Z,12.41
2019-05-26T03:42:52.465Z,12.41
2019-05-26T03:43:52.473Z,12.46
2019-05-26T03:44:52.444Z,12.46
2019-05-26T03:45:52.464Z,12.46
2019-05-26T03:46:52.442Z,12.49
2019-05-26T03:47:52.443Z,12.49
2019-05-26T03:48:52.437Z,12.51
2019-05-26T03:49:52.396Z,12.55
2019-05-26T03:50:52.402Z,12.56
2019-05-26T03:51:52.404Z,12.58
2019-05-26T03:52:52.368Z,12.59
2019-05-26T03:53:52.357Z,12.61
2019-05-26T03:54:52.361Z,12.61
2019-05-26T03:55:52.351Z,12.62
2019-05-26T03:56:52.330Z,12.67
2019-05-26T03:57:52.318Z,12.67
2019-05-26T03:58:52.320Z,12.69
2019-05-26T03:59:52.321Z,12.71
2019-05-26T04:00:52.298Z,12.73
2019-05-26T04:01:57.311Z,12.76
2019-05-26T04:02:53.258Z,12.76
2019-05-26T04:03:52.261Z,12.80
2019-05-26T04:04:52.252Z,12.80
2019-05-26T04:05:52.258Z,12.85
2019-05-26T04:06:52.228Z,12.85
2019-05-26T04:07:52.218Z,12.85
2019-05-26T04:08:52.204Z,12.87
2019-05-26T04:10:03.705Z,12.91
2019-05-26T04:10:53.183Z,12.91
2019-05-26T04:11:52.181Z,12.95
2019-05-26T04:12:52.204Z,12.94
2019-05-26T04:13:52.202Z,12.94
2019-05-26T04:14:52.125Z,12.95
2019-05-26T04:15:52.123Z,12.98
2019-05-26T04:16:52.104Z,12.99
2019-05-26T04:17:52.095Z,12.98
2019-05-26T04:18:52.137Z,13.01
2019-05-26T04:19:52.072Z,13.01
2019-05-26T04:20:52.063Z,13.01
2019-05-26T04:21:52.070Z,13.03
2019-05-26T04:22:52.042Z,13.04
2019-05-26T04:23:52.049Z,13.04
2019-05-26T04:24:52.031Z,13.07
2019-05-26T04:25:52.020Z,13.09
2019-05-26T04:26:52.000Z,13.09
2019-05-26T04:27:51.990Z,13.12
2019-05-26T04:28:52.015Z,13.12
2019-05-26T04:29:51.975Z,13.13
2019-05-26T04:30:51.970Z,13.14
2019-05-26T04:31:51.957Z,13.14
2019-05-26T04:32:51.936Z,13.16
2019-05-26T04:33:51.930Z,13.17
2019-05-26T04:34:51.914Z,13.19
2019-05-26T04:35:51.936Z,13.19
2019-05-26T04:36:51.898Z,13.22
2019-05-26T04:37:51.915Z,13.22
2019-05-26T04:38:51.889Z,13.25
2019-05-26T04:39:51.874Z,13.27
2019-05-26T04:40:51.852Z,13.28
2019-05-26T04:41:51.858Z,13.31
2019-05-26T04:42:51.842Z,13.31
2019-05-26T04:43:51.824Z,13.36
2019-05-26T04:44:51.818Z,13.39
2019-05-26T04:45:51.813Z,13.44
2019-05-26T04:46:51.809Z,13.44
2019-05-26T04:47:51.846Z,13.47
2019-05-26T04:48:51.770Z,13.50
2019-05-26T04:49:51.779Z,13.53
2019-05-26T04:50:51.760Z,13.53
2019-05-26T04:51:51.742Z,13.57
2019-05-26T04:53:05.573Z,13.62
2019-05-26T04:53:52.708Z,13.66
2019-05-26T04:54:51.729Z,13.71
2019-05-26T04:55:51.689Z,13.75
2019-05-26T04:56:51.677Z,13.76
2019-05-26T04:57:51.667Z,13.81
2019-05-26T04:58:51.670Z,13.83
2019-05-26T04:59:51.692Z,13.83
2019-05-26T05:00:51.651Z,13.84
2019-05-26T05:01:51.627Z,13.84
2019-05-26T05:02:51.614Z,13.83
2019-05-26T05:03:51.594Z,13.81
2019-05-26T05:04:51.679Z,13.81
2019-05-26T05:05:51.593Z,13.83
2019-05-26T05:06:51.567Z,13.84
2019-05-26T05:07:51.565Z,13.87
2019-05-26T05:08:51.569Z,13.87
2019-05-26T05:09:51.531Z,13.88
2019-05-26T05:10:51.540Z,13.91
2019-05-26T05:11:51.510Z,13.93
2019-05-26T05:12:51.501Z,13.99
2019-05-26T05:13:51.490Z,14.02
2019-05-26T05:14:51.540Z,14.04
2019-05-26T05:15:51.495Z,14.05
2019-05-26T05:16:51.478Z,14.09
2019-05-26T05:17:51.489Z,14.11
2019-05-26T05:18:51.447Z,14.12
2019-05-26T05:19:51.429Z,14.12
2019-05-26T05:20:51.438Z,14.16
2019-05-26T05:21:51.410Z,14.17
2019-05-26T05:22:51.406Z,14.19
2019-05-26T05:23:51.386Z,14.21
2019-05-26T05:24:51.394Z,14.24
2019-05-26T05:25:51.376Z,14.24
2019-05-26T05:26:51.358Z,14.27
2019-05-26T05:27:51.362Z,14.29
2019-05-26T05:28:51.326Z,14.30
2019-05-26T05:29:51.315Z,14.30
2019-05-26T05:30:51.334Z,14.31
2019-05-26T05:31:51.304Z,14.34
2019-05-26T05:32:51.303Z,14.35
2019-05-26T05:33:51.353Z,14.36
2019-05-26T05:34:51.285Z,14.38
2019-05-26T05:35:51.252Z,14.35
2019-05-26T05:36:51.254Z,14.36
2019-05-26T05:37:51.241Z,14.38
2019-05-26T05:38:51.231Z,14.39
2019-05-26T05:39:51.239Z,14.39
2019-05-26T05:40:59.366Z,14.41
2019-05-26T05:41:52.203Z,14.41
2019-05-26T05:42:51.178Z,14.44
2019-05-26T05:43:51.179Z,14.44
2019-05-26T05:44:51.150Z,14.45
2019-05-26T05:45:51.143Z,14.46
2019-05-26T05:46:51.138Z,14.49
2019-05-26T05:47:51.127Z,14.57
2019-05-26T05:48:51.164Z,14.63
2019-05-26T05:49:51.107Z,14.74
2019-05-26T05:50:51.188Z,14.90
2019-05-26T05:51:51.125Z,15.19
2019-05-26T05:52:51.087Z,17.84
2019-05-26T05:53:51.065Z,19.34
2019-05-26T05:54:51.085Z,20.51
2019-05-26T05:55:51.034Z,20.58
2019-05-26T05:56:51.025Z,19.50
2019-05-26T05:57:51.012Z,18.68
2019-05-26T05:58:51.023Z,18.07
2019-05-26T05:59:50.993Z,17.73
2019-05-26T06:00:50.983Z,17.45
2019-05-26T06:01:50.990Z,17.20
2019-05-26T06:02:50.953Z,17.02
2019-05-26T06:03:50.972Z,16.84
2019-05-26T06:04:50.951Z,16.67
2019-05-26T06:05:50.931Z,16.57
2019-05-26T06:06:50.912Z,16.48
2019-05-26T06:07:50.921Z,16.40
2019-05-26T06:08:51.078Z,16.36
2019-05-26T06:09:50.891Z,16.40
2019-05-26T06:10:50.873Z,16.44
2019-05-26T06:11:54.435Z,16.48
2019-05-26T06:12:51.849Z,16.55
2019-05-26T06:13:50.866Z,16.63
2019-05-26T06:14:50.851Z,16.72
2019-05-26T06:15:51.434Z,16.80
2019-05-26T06:16:50.808Z,16.85
2019-05-26T06:17:50.801Z,16.80
2019-05-26T06:18:50.809Z,16.87
2019-05-26T06:19:50.777Z,16.84
2019-05-26T06:20:50.778Z,16.87
2019-05-26T06:21:50.848Z,16.92
2019-05-26T06:22:50.756Z,17.09
2019-05-26T06:23:50.886Z,17.21
2019-05-26T06:24:50.727Z,17.25
2019-05-26T06:25:50.755Z,17.27
2019-05-26T06:26:50.719Z,17.40
2019-05-26T06:27:50.685Z,17.58
2019-05-26T06:28:52.444Z,18.62
2019-05-26T06:29:58.859Z,19.32
2019-05-26T06:30:51.685Z,19.23
2019-05-26T06:31:50.802Z,18.97
2019-05-26T06:32:50.653Z,18.72
2019-05-26T06:33:50.622Z,18.62
2019-05-26T06:34:50.633Z,18.50
2019-05-26T06:35:50.603Z,18.44
2019-05-26T06:36:50.596Z,18.35
2019-05-26T06:37:50.582Z,18.23
2019-05-26T06:38:50.582Z,18.02
2019-05-26T06:39:50.624Z,17.83
2019-05-26T06:40:50.579Z,17.74
2019-05-26T06:41:50.543Z,17.71
2019-05-26T06:42:50.531Z,17.71
2019-05-26T06:43:50.520Z,17.68
2019-05-26T06:44:53.870Z,17.70
2019-05-26T06:45:50.509Z,17.77
2019-05-26T06:46:50.492Z,17.94
2019-05-26T06:47:50.490Z,18.05
2019-05-26T06:48:50.480Z,18.02
2019-05-26T06:49:50.481Z,18.13
2019-05-26T06:50:50.457Z,18.20
2019-05-26T06:51:50.436Z,18.07
2019-05-26T06:52:50.427Z,18.02
2019-05-26T06:53:50.408Z,18.05
2019-05-26T06:54:50.397Z,18.14
2019-05-26T06:55:50.396Z,18.14
2019-05-26T06:56:50.386Z,18.16
2019-05-26T06:57:50.384Z,18.14
2019-05-26T06:58:50.359Z,18.14
2019-05-26T06:59:50.345Z,18.10
2019-05-26T07:00:50.356Z,18.02
2019-05-26T07:01:50.326Z,17.98
2019-05-26T07:02:50.335Z,17.83
2019-05-26T07:03:50.316Z,17.73
2019-05-26T07:04:50.294Z,17.83
2019-05-26T07:05:50.294Z,17.91
2019-05-26T07:06:50.274Z,17.94
2019-05-26T07:07:50.252Z,18.05
2019-05-26T07:08:50.252Z,18.02
2019-05-26T07:09:50.257Z,17.96
2019-05-26T07:10:50.231Z,18.02
2019-05-26T07:11:58.842Z,18.05
2019-05-26T07:12:51.214Z,18.09
2019-05-26T07:13:50.231Z,18.05
2019-05-26T07:14:50.188Z,18.05
2019-05-26T07:15:50.190Z,17.96
2019-05-26T07:16:50.167Z,17.89
2019-05-26T07:17:50.150Z,17.71
2019-05-26T07:18:50.150Z,17.49
2019-05-26T07:19:50.139Z,17.40
2019-05-26T07:20:50.136Z,17.43
2019-05-26T07:21:50.113Z,17.42
2019-05-26T07:22:50.147Z,17.42
2019-05-26T07:23:50.087Z,17.36
2019-05-26T07:24:50.077Z,17.40
2019-05-26T07:25:50.078Z,17.33
2019-05-26T07:26:50.077Z,17.42
2019-05-26T07:27:50.470Z,17.57
2019-05-26T07:28:50.039Z,17.65
2019-05-26T07:29:50.026Z,17.76
2019-05-26T07:30:50.036Z,17.94
2019-05-26T07:31:50.014Z,18.07
2019-05-26T07:32:49.999Z,18.16
2019-05-26T07:33:49.983Z,18.21
2019-05-26T07:34:49.996Z,18.36
2019-05-26T07:35:50.128Z,18.49
2019-05-26T07:36:49.955Z,18.64
2019-05-26T07:37:49.941Z,18.76
2019-05-26T07:38:49.927Z,18.91
2019-05-26T07:39:49.934Z,19.15
2019-05-26T07:40:49.923Z,19.34
2019-05-26T07:42:08.282Z,19.50
2019-05-26T07:42:50.883Z,19.60
2019-05-26T07:43:49.876Z,19.53
2019-05-26T07:44:49.863Z,19.45
2019-05-26T07:45:49.872Z,19.50
2019-05-26T07:46:49.853Z,19.60
2019-05-26T07:47:49.840Z,19.75
2019-05-26T07:48:49.820Z,19.85
2019-05-26T07:49:49.810Z,20.13
2019-05-26T07:50:49.819Z,20.26
2019-05-26T07:51:49.792Z,20.20
2019-05-26T07:52:49.786Z,20.23
2019-05-26T07:53:49.773Z,20.05
2019-05-26T07:54:49.757Z,19.85
2019-05-26T07:55:49.766Z,19.75
2019-05-26T07:56:49.739Z,19.79
2019-05-26T07:57:49.727Z,19.89
2019-05-26T07:58:49.711Z,20.04
2019-05-26T07:59:49.707Z,20.17
2019-05-26T08:00:49.706Z,20.22
2019-05-26T08:01:49.686Z,20.23
2019-05-26T08:02:49.702Z,20.25
2019-05-26T08:03:49.659Z,20.25
2019-05-26T08:04:49.646Z,20.20
2019-05-26T08:05:49.645Z,20.13
2019-05-26T08:06:49.637Z,20.17
2019-05-26T08:07:49.615Z,20.19
2019-05-26T08:08:49.607Z,20.22
2019-05-26T08:09:49.594Z,20.19
2019-05-26T08:10:49.596Z,20.22
2019-05-26T08:11:49.576Z,20.08
2019-05-26T08:12:49.570Z,20.01
2019-05-26T08:13:49.567Z,20.10
2019-05-26T08:14:49.543Z,20.01
2019-05-26T08:15:49.543Z,20.08
2019-05-26T08:16:49.524Z,20.13
2019-05-26T08:17:49.511Z,20.13
2019-05-26T08:18:49.502Z,20.16
2019-05-26T08:19:49.495Z,20.10
2019-05-26T08:20:49.492Z,20.07
2019-05-26T08:21:49.462Z,19.94
2019-05-26T08:22:49.460Z,19.95
2019-05-26T08:23:49.453Z,19.94
2019-05-26T08:24:49.441Z,19.87
2019-05-26T08:25:49.481Z,19.86
2019-05-26T08:26:49.420Z,19.80
2019-05-26T08:27:50.010Z,19.87
2019-05-26T08:28:49.391Z,20.19
2019-05-26T08:29:49.385Z,20.30
2019-05-26T08:30:49.389Z,20.27
2019-05-26T08:31:49.369Z,20.58
2019-05-26T08:32:49.348Z,20.82
2019-05-26T08:33:49.338Z,21.22
2019-05-26T08:34:49.328Z,21.81
2019-05-26T08:35:49.329Z,21.89
2019-05-26T08:36:49.318Z,21.82
2019-05-26T08:37:49.299Z,21.74
2019-05-26T08:38:49.296Z,21.99
2019-05-26T08:39:49.285Z,22.17
2019-05-26T08:40:49.257Z,22.35
2019-05-26T08:41:49.255Z,22.70
2019-05-26T08:42:49.268Z,22.67
2019-05-26T08:43:49.228Z,22.59
2019-05-26T08:44:49.230Z,22.60
2019-05-26T08:45:49.205Z,22.57
2019-05-26T08:46:49.209Z,23.49
2019-05-26T08:47:49.265Z,23.52
2019-05-26T08:48:49.176Z,22.84
2019-05-26T08:49:49.164Z,22.19
2019-05-26T08:50:49.162Z,21.81
2019-05-26T08:51:49.152Z,21.46
2019-05-26T08:52:49.152Z,21.11
2019-05-26T08:53:49.124Z,20.88
2019-05-26T08:54:49.124Z,20.82
2019-05-26T08:55:49.105Z,20.78
2019-05-26T08:56:49.102Z,20.69
2019-05-26T08:57:49.087Z,20.82
2019-05-26T08:58:49.082Z,20.76
2019-05-26T08:59:49.077Z,20.72
2019-05-26T09:00:49.072Z,20.68
2019-05-26T09:01:49.043Z,20.54
2019-05-26T09:02:49.031Z,20.88
2019-05-26T09:03:49.032Z,21.03
2019-05-26T09:04:49.003Z,21.21
2019-05-26T09:05:49.001Z,21.22
2019-05-26T09:06:48.980Z,21.64
2019-05-26T09:07:48.980Z,21.52
2019-05-26T09:08:48.979Z,21.19
2019-05-26T09:09:48.972Z,22.44
2019-05-26T09:10:48.939Z,23.63
2019-05-26T09:11:48.937Z,24.16
2019-05-26T09:13:00.142Z,24.30
2019-05-26T09:13:49.921Z,24.64
2019-05-26T09:14:48.908Z,24.83
2019-05-26T09:15:48.888Z,24.77
2019-05-26T09:16:48.879Z,24.90
2019-05-26T09:17:48.867Z,25.24
2019-05-26T09:18:48.858Z,25.49
2019-05-26T09:19:48.861Z,25.61
2019-05-26T09:20:48.850Z,25.79
2019-05-26T09:21:48.828Z,25.94
2019-05-26T09:22:48.821Z,25.56
2019-05-26T09:23:48.816Z,24.66
2019-05-26T09:24:48.798Z,23.97
2019-05-26T09:25:48.800Z,23.35
2019-05-26T09:26:48.776Z,22.88
2019-05-26T09:27:48.786Z,22.44
2019-05-26T09:28:48.757Z,21.99
2019-05-26T09:29:48.755Z,21.86
2019-05-26T09:30:48.737Z,21.74
2019-05-26T09:31:48.720Z,21.63
2019-05-26T09:32:48.716Z,21.49
2019-05-26T09:33:48.697Z,21.30
2019-05-26T09:34:48.695Z,21.28
2019-05-26T09:35:48.686Z,21.22
2019-05-26T09:36:48.675Z,21.36
2019-05-26T09:37:48.687Z,21.52
2019-05-26T09:38:48.654Z,21.49
2019-05-26T09:39:48.636Z,21.59
2019-05-26T09:40:48.623Z,21.70
2019-05-26T09:41:48.641Z,21.77
2019-05-26T09:42:48.612Z,21.64
2019-05-26T09:43:48.593Z,21.63
2019-05-26T09:44:48.583Z,21.68
2019-05-26T09:45:48.573Z,21.93
2019-05-26T09:46:48.574Z,22.20
2019-05-26T09:47:48.552Z,22.29
2019-05-26T09:48:48.540Z,22.12
2019-05-26T09:49:48.541Z,22.11
2019-05-26T09:50:48.531Z,22.04
2019-05-26T09:51:48.511Z,21.91
2019-05-26T09:52:48.501Z,21.74
2019-05-26T09:54:00.790Z,21.59
2019-05-26T09:54:49.480Z,21.55
2019-05-26T09:55:48.470Z,21.34
2019-05-26T09:56:48.458Z,21.36
2019-05-26T09:57:48.448Z,21.48
2019-05-26T09:58:48.449Z,21.53
2019-05-26T09:59:48.428Z,21.75
2019-05-26T10:00:48.469Z,21.83
2019-05-26T10:01:48.408Z,22.09
2019-05-26T10:02:48.398Z,22.19
2019-05-26T10:03:48.389Z,22.24
2019-05-26T10:04:48.380Z,22.35
2019-05-26T10:05:48.357Z,22.36
2019-05-26T10:06:48.359Z,22.33
2019-05-26T10:07:48.336Z,22.33
2019-05-26T10:08:48.329Z,22.20
2019-05-26T10:09:48.320Z,22.06
2019-05-26T10:10:48.318Z,21.98
2019-05-26T10:11:48.296Z,21.93
2019-05-26T10:12:48.287Z,21.85
2019-05-26T10:13:48.289Z,21.93
2019-05-26T10:14:48.277Z,21.93
2019-05-26T10:15:48.285Z,21.79
2019-05-26T10:16:48.248Z,21.73
2019-05-26T10:17:48.235Z,21.99
2019-05-26T10:18:48.248Z,22.09
2019-05-26T10:19:48.815Z,22.05
2019-05-26T10:20:48.213Z,22.15
2019-05-26T10:21:48.192Z,22.27
2019-05-26T10:22:48.184Z,22.33
2019-05-26T10:23:48.163Z,22.29
2019-05-26T10:24:48.163Z,22.23
2019-05-26T10:25:48.166Z,22.24
2019-05-26T10:26:48.134Z,22.09
2019-05-26T10:27:48.161Z,22.05
2019-05-26T10:28:48.132Z,22.17
2019-05-26T10:29:48.110Z,22.08
2019-05-26T10:30:48.105Z,21.99
2019-05-26T10:31:48.089Z,21.89
2019-05-26T10:32:48.082Z,21.98
2019-05-26T10:33:48.070Z,22.06
2019-05-26T10:34:48.053Z,22.01
2019-05-26T10:35:48.042Z,21.86
2019-05-26T10:36:48.029Z,21.98
2019-05-26T10:37:48.029Z,22.06
2019-05-26T10:38:48.009Z,22.06
2019-05-26T10:39:47.999Z,22.05
2019-05-26T10:40:47.987Z,22.12
2019-05-26T10:41:47.979Z,22.19
2019-05-26T10:42:47.975Z,22.15
2019-05-26T10:43:48.087Z,22.02
2019-05-26T10:44:47.947Z,21.85
2019-05-26T10:45:47.937Z,21.73
2019-05-26T10:46:47.935Z,21.58
2019-05-26T10:47:47.919Z,21.58
2019-05-26T10:48:47.897Z,21.61
2019-05-26T10:49:47.896Z,21.77
2019-05-26T10:50:47.889Z,21.90
2019-05-26T10:51:47.895Z,21.96
2019-05-26T10:52:47.875Z,22.02
2019-05-26T10:53:47.845Z,22.19
2019-05-26T10:54:47.837Z,22.20
2019-05-26T10:55:47.825Z,22.19
2019-05-26T10:56:47.827Z,22.27
2019-05-26T10:57:47.805Z,22.17
2019-05-26T10:58:47.805Z,22.08
2019-05-26T10:59:47.784Z,22.24
2019-05-26T11:00:47.775Z,22.35
2019-05-26T11:01:47.763Z,22.31
2019-05-26T11:02:47.770Z,22.41
2019-05-26T11:03:47.753Z,22.56
2019-05-26T11:04:47.733Z,22.70
2019-05-26T11:05:47.723Z,22.48
2019-05-26T11:06:47.710Z,22.44
2019-05-26T11:07:47.706Z,22.48
2019-05-26T11:08:47.691Z,22.44
2019-05-26T11:09:47.685Z,22.27
2019-05-26T11:10:47.661Z,22.02
2019-05-26T11:11:47.660Z,21.89
2019-05-26T11:12:47.650Z,21.79
2019-05-26T11:14:01.848Z,21.77
2019-05-26T11:14:48.629Z,21.79
2019-05-26T11:15:48.147Z,21.82
2019-05-26T11:16:47.600Z,21.90
2019-05-26T11:17:47.589Z,21.90
2019-05-26T11:18:47.615Z,21.94
2019-05-26T11:19:47.571Z,22.05
2019-05-26T11:20:47.558Z,22.27
2019-05-26T11:21:47.559Z,22.54
2019-05-26T11:22:47.537Z,22.60
2019-05-26T11:23:47.530Z,22.44
2019-05-26T11:24:47.518Z,22.38
2019-05-26T11:25:47.517Z,22.23
2019-05-26T11:26:47.497Z,22.19
2019-05-26T11:27:47.489Z,22.17
2019-05-26T11:28:47.468Z,21.99
2019-05-26T11:29:47.476Z,21.90
2019-05-26T11:30:47.454Z,21.99
2019-05-26T11:31:47.444Z,22.08
2019-05-26T11:32:47.456Z,22.23
2019-05-26T11:33:47.416Z,22.41
2019-05-26T11:35:00.682Z,22.52
2019-05-26T11:35:48.395Z,22.66
2019-05-26T11:36:47.393Z,22.76
2019-05-26T11:37:47.386Z,22.54
2019-05-26T11:38:47.375Z,22.57
2019-05-26T11:39:47.374Z,22.64
2019-05-26T11:40:47.783Z,22.67
2019-05-26T11:41:54.654Z,22.72
2019-05-26T11:42:48.323Z,22.56
2019-05-26T11:43:47.313Z,22.44
2019-05-26T11:44:47.322Z,22.51
2019-05-26T11:45:47.298Z,22.64
2019-05-26T11:46:47.282Z,22.82
2019-05-26T11:47:47.283Z,23.01
2019-05-26T11:48:47.772Z,22.99
2019-05-26T11:49:47.271Z,22.93
2019-05-26T11:50:47.240Z,22.69
2019-05-26T11:51:47.221Z,22.60
2019-05-26T11:52:47.220Z,22.57
2019-05-26T11:53:47.211Z,22.66
2019-05-26T11:54:47.220Z,22.64
2019-05-26T11:55:47.190Z,22.64
2019-05-26T11:56:47.173Z,22.63
2019-05-26T11:57:47.170Z,22.64
2019-05-26T11:58:47.160Z,22.69
2019-05-26T11:59:47.568Z,22.81
2019-05-26T12:00:47.140Z,22.88
2019-05-26T12:01:47.120Z,22.76
2019-05-26T12:02:47.114Z,22.63
2019-05-26T12:03:47.099Z,22.63
2019-05-26T12:04:47.088Z,22.69
2019-05-26T12:05:47.097Z,22.75
2019-05-26T12:06:47.093Z,22.79
2019-05-26T12:07:47.074Z,22.64
2019-05-26T12:08:47.049Z,22.57
2019-05-26T12:09:47.036Z,22.49
2019-05-26T12:10:47.034Z,22.60
2019-05-26T12:11:47.015Z,22.51
2019-05-26T12:12:47.005Z,22.54
2019-05-26T12:13:46.985Z,22.64
2019-05-26T12:14:46.985Z,22.57
2019-05-26T12:15:46.992Z,22.56
2019-05-26T12:16:46.965Z,22.54
2019-05-26T12:17:46.944Z,22.39
2019-05-26T12:18:46.944Z,22.35
2019-05-26T12:19:46.933Z,22.35
2019-05-26T12:20:46.925Z,22.36
2019-05-26T12:21:46.907Z,22.33
2019-05-26T12:22:46.893Z,22.27
2019-05-26T12:23:46.886Z,22.23
2019-05-26T12:24:46.877Z,22.24
2019-05-26T12:25:46.898Z,22.19
2019-05-26T12:26:46.854Z,22.23
2019-05-26T12:27:46.843Z,22.20
2019-05-26T12:28:46.832Z,22.19
2019-05-26T12:29:46.822Z,22.27
2019-05-26T12:30:46.831Z,22.42
2019-05-26T12:31:46.811Z,22.42
2019-05-26T12:32:46.921Z,22.45
2019-05-26T12:33:46.778Z,22.42
2019-05-26T12:34:46.778Z,22.39
2019-05-26T12:35:46.769Z,22.39
2019-05-26T12:36:46.751Z,22.35
2019-05-26T12:37:48.575Z,22.15
2019-05-26T12:38:46.720Z,22.06
2019-05-26T12:39:46.709Z,21.99
2019-05-26T12:40:46.719Z,21.93
2019-05-26T12:41:46.699Z,22.11
2019-05-26T12:42:46.689Z,22.24
2019-05-26T12:43:46.676Z,22.30
2019-05-26T12:44:49.681Z,22.42
2019-05-26T12:45:46.655Z,22.56
2019-05-26T12:46:46.637Z,22.52
2019-05-26T12:47:46.670Z,22.69
2019-05-26T12:48:46.620Z,22.81
2019-05-26T12:49:46.628Z,22.88
2019-05-26T12:50:46.596Z,22.85
2019-05-26T12:51:46.596Z,22.93
2019-05-26T12:52:46.576Z,23.04